Milane, Texas
Current Conditions -  °F | °C
As of 9:56 AM on Friday 28 Nov 2014 (Local Time) from KAQV Reporting Station
Clear Clear  
Wind Chill: 51°   Ceiling: Unl
Heat Index: 51°   Visibility: 10mi
Dew Point: 36°   Wind: 6mph
Humidity: 56%   Direction: NA
Pressure: 30.36"   Gusts: NA
Location:  31.4918°N, 93.8786°W
Report Text: KAQV 281556Z AUTO VRB05KT 10SM CLR 11/02 A3036 RMK AO2 SLP284 T01060022
Loading
Personal Weather Stations






























Interactive Weather Map New forecast layout! Learn more

10-Day Weather Forecast

Advertisements
Track Severe Weather on mobile